Granville, Vermont
Current Conditions -  °F | °C
As of 1:15 AM on Tuesday 21 Oct 2014 (Local Time) from K6B0 Reporting Station
Overcast Overcast  
Wind Chill: 48°   Ceiling: 7000
Heat Index: 50°   Visibility: 10mi
Dew Point: 37°   Wind: 5mph
Humidity: 62%   Direction: 140°SE
Pressure: 29.93"   Gusts: NA
Location:  43.98°N, 72.85°W
Report Text: K6B0 210515Z AUTO 14004KT 10SM OVC070 10/03 A2993 RMK AO2 T00990029
Loading
Personal Weather Stations






























Interactive Weather Map
Tropical Storm Tracking
New forecast layout! Learn more

10-Day Weather Forecast

Advertisements
Track Severe Weather on mobile